EZY37LB EGPH-LIPZ
Flight info
| Callsign | EZY37LB |
|---|---|
| Flight time | N/A |
| Altitude | 37000 |
| Route | GOSAM P600 FENIK L612 ELBUS DCT NAVSO DCT AKOMU DCT VAMEB UL612 HON DCT XAMAB DCT VEULE DCT TEPRI DCT POGZI DCT GELTA DCT LUVAL DCT SHARA DCT DEVDI DCT RIPUS DCT RESIA DCT ADOSA/N0344F190 L612 ALBET |
| Aircraft | A319/M-SDE3FGHIRWY/LB1 |
Departure
| Time | N/A |
|---|---|
| Airport | Edinburgh Airport (EGPH) |
Arrival
| Time | 2026-04-28 11:50 |
|---|---|
| Airport | Venice Marco Polo Airport (LIPZ) |
| Time | Latitude | Longitude | Altitude | Speed | Heading |
|---|---|---|---|---|---|
| 2026-04-28 11:18 | 46.43892 | 10.09070 | 36219 ft | 449 kts | 144° |
| 2026-04-28 11:18 | 46.41262 | 10.12220 | 35954 ft | 446 kts | 145° |
| 2026-04-28 11:19 | 46.38633 | 10.15340 | 35595 ft | 445 kts | 145° |
| 2026-04-28 11:19 | 46.36138 | 10.18302 | 35124 ft | 445 kts | 145° |
| 2026-04-28 11:19 | 46.33595 | 10.21328 | 34525 ft | 445 kts | 145° |
| 2026-04-28 11:19 | 46.30875 | 10.24564 | 33791 ft | 446 kts | 145° |
| 2026-04-28 11:20 | 46.28375 | 10.27538 | 33115 ft | 446 kts | 145° |
| 2026-04-28 11:20 | 46.25905 | 10.30475 | 32449 ft | 446 kts | 144° |
| 2026-04-28 11:20 | 46.23414 | 10.33435 | 31778 ft | 446 kts | 144° |
| 2026-04-28 11:20 | 46.20806 | 10.36534 | 31071 ft | 446 kts | 144° |
| 2026-04-28 11:21 | 46.18240 | 10.39582 | 30366 ft | 446 kts | 144° |
| 2026-04-28 11:21 | 46.15712 | 10.42577 | 29828 ft | 441 kts | 144° |
| 2026-04-28 11:21 | 46.13267 | 10.45477 | 29378 ft | 435 kts | 144° |
| 2026-04-28 11:21 | 46.10719 | 10.48493 | 28904 ft | 429 kts | 144° |
| 2026-04-28 11:22 | 46.08273 | 10.51384 | 28443 ft | 423 kts | 144° |
| 2026-04-28 11:22 | 46.05946 | 10.54130 | 27992 ft | 418 kts | 144° |
| 2026-04-28 11:22 | 46.03672 | 10.56811 | 27545 ft | 413 kts | 144° |
| 2026-04-28 11:22 | 46.01281 | 10.59626 | 27079 ft | 408 kts | 143° |
| 2026-04-28 11:23 | 45.98978 | 10.62335 | 26627 ft | 404 kts | 144° |
| 2026-04-28 11:23 | 45.96713 | 10.64999 | 26192 ft | 400 kts | 143° |
| 2026-04-28 11:23 | 45.94481 | 10.67619 | 25747 ft | 396 kts | 144° |
| 2026-04-28 11:23 | 45.92352 | 10.70112 | 25328 ft | 393 kts | 144° |
| 2026-04-28 11:24 | 45.90246 | 10.72578 | 24912 ft | 390 kts | 144° |
| 2026-04-28 11:24 | 45.88130 | 10.75053 | 24496 ft | 387 kts | 144° |
| 2026-04-28 11:24 | 45.86055 | 10.77478 | 24081 ft | 384 kts | 144° |
| 2026-04-28 11:24 | 45.83994 | 10.79883 | 23673 ft | 381 kts | 144° |
| 2026-04-28 11:25 | 45.81917 | 10.82305 | 23262 ft | 378 kts | 144° |
| 2026-04-28 11:25 | 45.79794 | 10.84781 | 22834 ft | 376 kts | 144° |
| 2026-04-28 11:25 | 45.77759 | 10.87152 | 22420 ft | 373 kts | 144° |
| 2026-04-28 11:25 | 45.75629 | 10.89632 | 21990 ft | 370 kts | 144° |
| 2026-04-28 11:26 | 45.73427 | 10.92193 | 21548 ft | 367 kts | 144° |
| 2026-04-28 11:26 | 45.71328 | 10.94631 | 21120 ft | 365 kts | 144° |
| 2026-04-28 11:26 | 45.69283 | 10.97002 | 20695 ft | 362 kts | 144° |
| 2026-04-28 11:26 | 45.67331 | 10.99262 | 20295 ft | 360 kts | 143° |
| 2026-04-28 11:27 | 45.65368 | 11.01692 | 19888 ft | 359 kts | 138° |
| 2026-04-28 11:27 | 45.63673 | 11.04384 | 19482 ft | 358 kts | 130° |
| 2026-04-28 11:27 | 45.62197 | 11.07407 | 19074 ft | 357 kts | 124° |
| 2026-04-28 11:27 | 45.60836 | 11.10480 | 18664 ft | 355 kts | 123° |
| 2026-04-28 11:28 | 45.59477 | 11.13576 | 18262 ft | 353 kts | 123° |
| 2026-04-28 11:28 | 45.58161 | 11.16537 | 17857 ft | 351 kts | 124° |
| 2026-04-28 11:28 | 45.56858 | 11.19446 | 17444 ft | 350 kts | 124° |
| 2026-04-28 11:28 | 45.55547 | 11.22363 | 17038 ft | 349 kts | 124° |
| 2026-04-28 11:29 | 45.54225 | 11.25300 | 16636 ft | 347 kts | 124° |
| 2026-04-28 11:29 | 45.52903 | 11.28236 | 16227 ft | 346 kts | 124° |
| 2026-04-28 11:29 | 45.51603 | 11.31119 | 15816 ft | 344 kts | 124° |
| 2026-04-28 11:29 | 45.50306 | 11.33991 | 15411 ft | 343 kts | 124° |
| 2026-04-28 11:30 | 45.49002 | 11.36879 | 15005 ft | 341 kts | 124° |
| 2026-04-28 11:30 | 45.46438 | 11.42544 | 14199 ft | 338 kts | 124° |
| 2026-04-28 11:30 | 45.45156 | 11.45370 | 13801 ft | 336 kts | 123° |
| 2026-04-28 11:31 | 45.43885 | 11.48172 | 13396 ft | 334 kts | 124° |
| 2026-04-28 11:31 | 45.42525 | 11.50924 | 12992 ft | 331 kts | 128° |
| 2026-04-28 11:31 | 45.41010 | 11.53505 | 12870 ft | 329 kts | 133° |
| 2026-04-28 11:31 | 45.39472 | 11.55949 | 12882 ft | 331 kts | 133° |
| 2026-04-28 11:32 | 45.37883 | 11.58459 | 12764 ft | 332 kts | 133° |
| 2026-04-28 11:32 | 45.36354 | 11.60870 | 12351 ft | 330 kts | 133° |
| 2026-04-28 11:32 | 45.34848 | 11.63672 | 11874 ft | 329 kts | 116° |
| 2026-04-28 11:32 | 45.34270 | 11.66871 | 11465 ft | 328 kts | 93° |
| 2026-04-28 11:33 | 45.34384 | 11.70172 | 11074 ft | 324 kts | 86° |
| 2026-04-28 11:33 | 45.34584 | 11.73377 | 10680 ft | 321 kts | 86° |
| 2026-04-28 11:33 | 45.34764 | 11.76475 | 10302 ft | 317 kts | 86° |
| 2026-04-28 11:33 | 45.34923 | 11.79524 | 10159 ft | 303 kts | 87° |
| 2026-04-28 11:34 | 45.34988 | 11.82526 | 10032 ft | 289 kts | 98° |
| 2026-04-28 11:34 | 45.34341 | 11.85174 | 9718 ft | 282 kts | 125° |
| 2026-04-28 11:34 | 45.33058 | 11.87331 | 9389 ft | 277 kts | 134° |
| 2026-04-28 11:34 | 45.31701 | 11.89376 | 9157 ft | 269 kts | 138° |
| 2026-04-28 11:35 | 45.30051 | 11.90704 | 9009 ft | 257 kts | 171° |
| 2026-04-28 11:35 | 45.28188 | 11.90514 | 8982 ft | 254 kts | 202° |
| 2026-04-28 11:35 | 45.26643 | 11.89064 | 9017 ft | 255 kts | 222° |
| 2026-04-28 11:35 | 45.25313 | 11.87321 | 9029 ft | 255 kts | 223° |
| 2026-04-28 11:36 | 45.23946 | 11.85552 | 9029 ft | 255 kts | 222° |
| 2026-04-28 11:36 | 45.22613 | 11.83851 | 9027 ft | 255 kts | 221° |
| 2026-04-28 11:36 | 45.21267 | 11.82149 | 9026 ft | 256 kts | 221° |
| 2026-04-28 11:36 | 45.19906 | 11.80436 | 9026 ft | 256 kts | 221° |
| 2026-04-28 11:37 | 45.18528 | 11.78708 | 9025 ft | 257 kts | 221° |
| 2026-04-28 11:37 | 45.17177 | 11.77013 | 9027 ft | 256 kts | 221° |
| 2026-04-28 11:37 | 45.15802 | 11.75290 | 9016 ft | 252 kts | 221° |
| 2026-04-28 11:37 | 45.14503 | 11.73663 | 9010 ft | 236 kts | 221° |
| 2026-04-28 11:38 | 45.13230 | 11.72070 | 9013 ft | 233 kts | 221° |
| 2026-04-28 11:38 | 45.11803 | 11.70835 | 8996 ft | 234 kts | 193° |
| 2026-04-28 11:38 | 45.10115 | 11.70989 | 9009 ft | 236 kts | 159° |
| 2026-04-28 11:38 | 45.08710 | 11.72504 | 9018 ft | 240 kts | 133° |
| 2026-04-28 11:39 | 45.07495 | 11.74520 | 9013 ft | 240 kts | 132° |
| 2026-04-28 11:39 | 45.06520 | 11.76741 | 8969 ft | 243 kts | 103° |
| 2026-04-28 11:39 | 45.06640 | 11.79249 | 8839 ft | 247 kts | 67° |
| 2026-04-28 11:39 | 45.07704 | 11.81197 | 8571 ft | 245 kts | 40° |
| 2026-04-28 11:40 | 45.09037 | 11.82761 | 8345 ft | 244 kts | 39° |
| 2026-04-28 11:40 | 45.10335 | 11.84291 | 8127 ft | 243 kts | 40° |
| 2026-04-28 11:40 | 45.11631 | 11.85860 | 7909 ft | 241 kts | 41° |
| 2026-04-28 11:40 | 45.12912 | 11.87444 | 7627 ft | 240 kts | 41° |
| 2026-04-28 11:41 | 45.14239 | 11.89102 | 7292 ft | 240 kts | 41° |
| 2026-04-28 11:41 | 45.15490 | 11.90673 | 7008 ft | 239 kts | 41° |
| 2026-04-28 11:41 | 45.16721 | 11.92220 | 6720 ft | 238 kts | 42° |
| 2026-04-28 11:41 | 45.17973 | 11.93794 | 6438 ft | 237 kts | 42° |
| 2026-04-28 11:42 | 45.19210 | 11.95352 | 6156 ft | 236 kts | 42° |
| 2026-04-28 11:42 | 45.20429 | 11.96889 | 5893 ft | 235 kts | 42° |
| 2026-04-28 11:42 | 45.21727 | 11.98527 | 5602 ft | 234 kts | 42° |
| 2026-04-28 11:42 | 45.23005 | 12.00136 | 5329 ft | 232 kts | 41° |
| 2026-04-28 11:43 | 45.24299 | 12.01659 | 5057 ft | 231 kts | 40° |
| 2026-04-28 11:43 | 45.25561 | 12.03136 | 4799 ft | 229 kts | 40° |
| 2026-04-28 11:43 | 45.26778 | 12.04604 | 4540 ft | 227 kts | 41° |
| 2026-04-28 11:43 | 45.27964 | 12.06076 | 4286 ft | 226 kts | 42° |
| 2026-04-28 11:44 | 45.29179 | 12.07618 | 4023 ft | 224 kts | 43° |
| 2026-04-28 11:44 | 45.30371 | 12.09151 | 3801 ft | 223 kts | 43° |
| 2026-04-28 11:44 | 45.31527 | 12.10650 | 3593 ft | 223 kts | 43° |
| 2026-04-28 11:44 | 45.32675 | 12.12143 | 3397 ft | 222 kts | 43° |
| 2026-04-28 11:45 | 45.33813 | 12.13623 | 3340 ft | 218 kts | 43° |
| 2026-04-28 11:45 | 45.34889 | 12.15020 | 3370 ft | 202 kts | 43° |
| 2026-04-28 11:45 | 45.35887 | 12.16316 | 3361 ft | 188 kts | 43° |
| 2026-04-28 11:45 | 45.36866 | 12.17585 | 3229 ft | 180 kts | 43° |
| 2026-04-28 11:46 | 45.37807 | 12.18802 | 2978 ft | 177 kts | 43° |
| 2026-04-28 11:46 | 45.38725 | 12.19990 | 2734 ft | 175 kts | 43° |
| 2026-04-28 11:46 | 45.39632 | 12.21162 | 2495 ft | 174 kts | 43° |
| 2026-04-28 11:46 | 45.40561 | 12.22361 | 2255 ft | 174 kts | 43° |
| 2026-04-28 11:47 | 45.41462 | 12.23523 | 2026 ft | 173 kts | 43° |
| 2026-04-28 11:47 | 45.42370 | 12.24694 | 1801 ft | 173 kts | 43° |
| 2026-04-28 11:47 | 45.43324 | 12.25923 | 1568 ft | 172 kts | 43° |
| 2026-04-28 11:47 | 45.44214 | 12.27069 | 1355 ft | 167 kts | 44° |
| 2026-04-28 11:48 | 45.45058 | 12.28156 | 1132 ft | 153 kts | 44° |
| 2026-04-28 11:48 | 45.45845 | 12.29169 | 918 ft | 142 kts | 44° |
| 2026-04-28 11:48 | 45.46585 | 12.30125 | 740 ft | 138 kts | 43° |
| 2026-04-28 11:48 | 45.47307 | 12.31054 | 565 ft | 138 kts | 44° |
| 2026-04-28 11:49 | 45.48021 | 12.31978 | 394 ft | 137 kts | 44° |
| 2026-04-28 11:49 | 45.48750 | 12.32935 | 219 ft | 137 kts | 44° |
| 2026-04-28 11:49 | 45.49512 | 12.33907 | 38 ft | 137 kts | 43° |
| 2026-04-28 11:49 | 45.50206 | 12.34799 | 9 ft | 107 kts | 42° |
| 2026-04-28 11:50 | 45.50649 | 12.35366 | 12 ft | 52 kts | 41° |
| 2026-04-28 11:50 | 45.50855 | 12.35632 | 12 ft | 32 kts | 44° |
| 2026-04-28 11:50 | 45.51033 | 12.35817 | 12 ft | 20 kts | 21° |
| 2026-04-28 11:50 | 45.51160 | 12.35870 | 9 ft | 18 kts | 11° |
| 2026-04-28 11:51 | 45.51250 | 12.35892 | 9 ft | 8 kts | 352° |
| 2026-04-28 11:51 | 45.51273 | 12.35817 | 9 ft | 9 kts | 234° |
| 2026-04-28 11:51 | 45.51221 | 12.35746 | 10 ft | 9 kts | 223° |
| 2026-04-28 11:51 | 45.51168 | 12.35678 | 12 ft | 9 kts | 222° |
| 2026-04-28 11:52 | 45.51105 | 12.35595 | 12 ft | 11 kts | 221° |
| 2026-04-28 11:52 | 45.51035 | 12.35506 | 12 ft | 13 kts | 221° |
| 2026-04-28 11:52 | 45.50979 | 12.35364 | 9 ft | 16 kts | 258° |
| 2026-04-28 11:52 | 45.50952 | 12.35208 | 9 ft | 14 kts | 239° |
| 2026-04-28 11:53 | 45.50869 | 12.35093 | 9 ft | 15 kts | 221° |
| 2026-04-28 11:53 | 45.50778 | 12.34976 | 8 ft | 16 kts | 221° |
| 2026-04-28 11:53 | 45.50676 | 12.34845 | 9 ft | 17 kts | 221° |
| 2026-04-28 11:53 | 45.50574 | 12.34713 | 9 ft | 18 kts | 221° |
| 2026-04-28 11:54 | 45.50468 | 12.34579 | 9 ft | 18 kts | 222° |
| 2026-04-28 11:54 | 45.50378 | 12.34465 | 9 ft | 9 kts | 221° |
| 2026-04-28 11:54 | 45.50367 | 12.34367 | 9 ft | 10 kts | 315° |
| 2026-04-28 11:54 | 45.50412 | 12.34350 | 9 ft | 3 kts | 351° |
| 2026-04-28 11:55 | 45.50428 | 12.34307 | 9 ft | 5 kts | 269° |
| 2026-04-28 11:55 | 45.50426 | 12.34242 | 9 ft | 5 kts | 266° |
| 2026-04-28 11:55 | 45.50425 | 12.34207 | 9 ft | 0 kts | 268° |